sensor_id;sensor_type;location;lat;lon;timestamp;temperature;humidity
50947;DHT22;36955;47.416;7.716;2022-08-25T00:01:28;18.60;99.90
50947;DHT22;36955;47.416;7.716;2022-08-25T00:03:56;18.50;99.90
50947;DHT22;36955;47.416;7.716;2022-08-25T00:06:22;18.50;99.90
50947;DHT22;36955;47.416;7.716;2022-08-25T00:08:49;18.50;99.90
50947;DHT22;36955;47.416;7.716;2022-08-25T00:11:21;18.50;99.90
50947;DHT22;36955;47.416;7.716;2022-08-25T00:13:53;18.50;99.90
50947;DHT22;36955;47.416;7.716;2022-08-25T00:16:20;18.50;99.90
50947;DHT22;36955;47.416;7.716;2022-08-25T00:18:49;18.40;99.90
50947;DHT22;36955;47.416;7.716;2022-08-25T00:21:16;18.40;99.90
50947;DHT22;36955;47.416;7.716;2022-08-25T00:23:43;18.40;99.90
50947;DHT22;36955;47.416;7.716;2022-08-25T00:26:10;18.40;99.90
50947;DHT22;36955;47.416;7.716;2022-08-25T00:28:37;18.40;99.90
50947;DHT22;36955;47.416;7.716;2022-08-25T00:31:03;18.40;99.90
50947;DHT22;36955;47.416;7.716;2022-08-25T00:33:29;18.50;99.90
50947;DHT22;36955;47.416;7.716;2022-08-25T00:35:57;18.50;99.90
50947;DHT22;36955;47.416;7.716;2022-08-25T00:38:23;18.40;99.90
50947;DHT22;36955;47.416;7.716;2022-08-25T00:40:49;18.40;99.90
50947;DHT22;36955;47.416;7.716;2022-08-25T00:43:16;18.40;99.90
50947;DHT22;36955;47.416;7.716;2022-08-25T00:45:42;18.40;99.90
50947;DHT22;36955;47.416;7.716;2022-08-25T00:48:08;18.50;99.90
50947;DHT22;36955;47.416;7.716;2022-08-25T00:50:35;18.50;99.90
50947;DHT22;36955;47.416;7.716;2022-08-25T00:53:02;18.40;99.90
50947;DHT22;36955;47.416;7.716;2022-08-25T00:55:35;18.50;99.90
50947;DHT22;36955;47.416;7.716;2022-08-25T00:58:12;18.40;99.90
50947;DHT22;36955;47.416;7.716;2022-08-25T01:00:44;18.50;99.90
50947;DHT22;36955;47.416;7.716;2022-08-25T01:03:11;18.40;99.90
50947;DHT22;36955;47.416;7.716;2022-08-25T01:05:39;18.40;99.90
50947;DHT22;36955;47.416;7.716;2022-08-25T01:08:06;18.40;99.90
50947;DHT22;36955;47.416;7.716;2022-08-25T01:10:35;18.40;99.90
50947;DHT22;36955;47.416;7.716;2022-08-25T01:13:25;18.40;99.90
50947;DHT22;36955;47.416;7.716;2022-08-25T01:15:54;18.30;99.90
50947;DHT22;36955;47.416;7.716;2022-08-25T01:18:22;18.30;99.90
50947;DHT22;36955;47.416;7.716;2022-08-25T01:20:53;18.30;99.90
50947;DHT22;36955;47.416;7.716;2022-08-25T01:23:20;18.30;99.90
50947;DHT22;36955;47.416;7.716;2022-08-25T01:28:29;18.10;99.90
50947;DHT22;36955;47.416;7.716;2022-08-25T01:30:55;18.00;99.90
50947;DHT22;36955;47.416;7.716;2022-08-25T01:33:21;18.00;99.90
50947;DHT22;36955;47.416;7.716;2022-08-25T01:35:47;17.90;99.90
50947;DHT22;36955;47.416;7.716;2022-08-25T01:38:14;17.80;99.90
50947;DHT22;36955;47.416;7.716;2022-08-25T01:40:41;17.70;99.90
50947;DHT22;36955;47.416;7.716;2022-08-25T01:45:37;17.50;99.90
50947;DHT22;36955;47.416;7.716;2022-08-25T01:48:05;17.50;99.90
50947;DHT22;36955;47.416;7.716;2022-08-25T01:50:32;17.50;99.90
50947;DHT22;36955;47.416;7.716;2022-08-25T01:53:18;17.50;99.90
50947;DHT22;36955;47.416;7.716;2022-08-25T01:55:44;17.40;99.90
50947;DHT22;36955;47.416;7.716;2022-08-25T01:58:10;17.40;99.90
50947;DHT22;36955;47.416;7.716;2022-08-25T02:00:36;17.40;99.90
50947;DHT22;36955;47.416;7.716;2022-08-25T02:03:02;17.30;99.90
50947;DHT22;36955;47.416;7.716;2022-08-25T02:05:28;17.30;99.90
50947;DHT22;36955;47.416;7.716;2022-08-25T02:07:54;17.30;99.90
50947;DHT22;36955;47.416;7.716;2022-08-25T02:10:21;17.20;99.90
50947;DHT22;36955;47.416;7.716;2022-08-25T02:12:47;17.20;99.90
50947;DHT22;36955;47.416;7.716;2022-08-25T02:15:13;17.20;99.90
50947;DHT22;36955;47.416;7.716;2022-08-25T02:17:40;17.10;99.90
50947;DHT22;36955;47.416;7.716;2022-08-25T02:20:07;17.10;99.90
50947;DHT22;36955;47.416;7.716;2022-08-25T02:22:33;17.10;99.90
50947;DHT22;36955;47.416;7.716;2022-08-25T02:24:59;17.00;99.90
50947;DHT22;36955;47.416;7.716;2022-08-25T02:27:26;17.00;99.90
50947;DHT22;36955;47.416;7.716;2022-08-25T02:29:52;17.00;99.90
50947;DHT22;36955;47.416;7.716;2022-08-25T02:32:18;17.00;99.90
50947;DHT22;36955;47.416;7.716;2022-08-25T02:34:44;16.90;99.90
50947;DHT22;36955;47.416;7.716;2022-08-25T02:37:10;16.90;99.90
50947;DHT22;36955;47.416;7.716;2022-08-25T02:39:36;16.90;99.90
50947;DHT22;36955;47.416;7.716;2022-08-25T02:42:02;16.80;99.90
50947;DHT22;36955;47.416;7.716;2022-08-25T02:44:28;16.80;99.90
50947;DHT22;36955;47.416;7.716;2022-08-25T02:46:54;16.80;99.90
50947;DHT22;36955;47.416;7.716;2022-08-25T02:49:20;16.80;99.90
50947;DHT22;36955;47.416;7.716;2022-08-25T02:51:46;16.70;99.90
50947;DHT22;36955;47.416;7.716;2022-08-25T02:54:12;16.70;99.90
50947;DHT22;36955;47.416;7.716;2022-08-25T02:56:38;16.70;99.90
50947;DHT22;36955;47.416;7.716;2022-08-25T02:59:05;16.70;99.90
50947;DHT22;36955;47.416;7.716;2022-08-25T03:01:31;16.80;99.90
50947;DHT22;36955;47.416;7.716;2022-08-25T03:03:57;16.80;99.90
50947;DHT22;36955;47.416;7.716;2022-08-25T03:06:23;16.80;99.90
50947;DHT22;36955;47.416;7.716;2022-08-25T03:08:50;16.80;99.90
50947;DHT22;36955;47.416;7.716;2022-08-25T03:11:17;16.80;99.90
50947;DHT22;36955;47.416;7.716;2022-08-25T03:13:43;16.80;99.90
50947;DHT22;36955;47.416;7.716;2022-08-25T03:16:10;16.90;99.90
50947;DHT22;36955;47.416;7.716;2022-08-25T03:18:37;16.80;99.90
50947;DHT22;36955;47.416;7.716;2022-08-25T03:21:03;16.80;99.90
50947;DHT22;36955;47.416;7.716;2022-08-25T03:23:29;16.90;99.90
50947;DHT22;36955;47.416;7.716;2022-08-25T03:25:56;16.90;99.90
50947;DHT22;36955;47.416;7.716;2022-08-25T03:28:22;16.90;99.90
50947;DHT22;36955;47.416;7.716;2022-08-25T03:30:48;16.90;99.90
50947;DHT22;36955;47.416;7.716;2022-08-25T03:33:14;16.90;99.90
50947;DHT22;36955;47.416;7.716;2022-08-25T03:35:40;16.90;99.90
50947;DHT22;36955;47.416;7.716;2022-08-25T03:38:06;16.90;99.90
50947;DHT22;36955;47.416;7.716;2022-08-25T03:40:32;16.80;99.90
50947;DHT22;36955;47.416;7.716;2022-08-25T03:42:59;16.80;99.90
50947;DHT22;36955;47.416;7.716;2022-08-25T03:45:25;16.80;99.90
50947;DHT22;36955;47.416;7.716;2022-08-25T03:47:52;16.80;99.90
50947;DHT22;36955;47.416;7.716;2022-08-25T03:50:20;16.80;99.90
50947;DHT22;36955;47.416;7.716;2022-08-25T03:52:51;16.80;99.90
50947;DHT22;36955;47.416;7.716;2022-08-25T03:55:19;16.80;99.90
50947;DHT22;36955;47.416;7.716;2022-08-25T03:57:46;16.80;99.90
50947;DHT22;36955;47.416;7.716;2022-08-25T04:00:12;16.80;99.90
50947;DHT22;36955;47.416;7.716;2022-08-25T04:02:39;16.80;99.90
50947;DHT22;36955;47.416;7.716;2022-08-25T04:05:06;16.70;99.90
50947;DHT22;36955;47.416;7.716;2022-08-25T04:07:33;16.70;99.90
50947;DHT22;36955;47.416;7.716;2022-08-25T04:09:59;16.70;99.90
50947;DHT22;36955;47.416;7.716;2022-08-25T04:12:25;16.70;99.90
50947;DHT22;36955;47.416;7.716;2022-08-25T04:14:51;16.70;99.90
50947;DHT22;36955;47.416;7.716;2022-08-25T04:17:17;16.70;99.90
50947;DHT22;36955;47.416;7.716;2022-08-25T04:19:44;16.60;99.90
50947;DHT22;36955;47.416;7.716;2022-08-25T04:22:10;16.60;99.90
50947;DHT22;36955;47.416;7.716;2022-08-25T04:24:36;16.60;99.90
50947;DHT22;36955;47.416;7.716;2022-08-25T04:27:02;16.60;99.90
50947;DHT22;36955;47.416;7.716;2022-08-25T04:29:28;16.50;99.90
50947;DHT22;36955;47.416;7.716;2022-08-25T04:31:54;16.40;99.90
50947;DHT22;36955;47.416;7.716;2022-08-25T04:34:23;16.40;99.90
50947;DHT22;36955;47.416;7.716;2022-08-25T04:36:49;16.30;99.90
50947;DHT22;36955;47.416;7.716;2022-08-25T04:39:16;16.30;99.90
50947;DHT22;36955;47.416;7.716;2022-08-25T04:41:42;16.30;99.90
50947;DHT22;36955;47.416;7.716;2022-08-25T04:44:08;16.20;99.90
50947;DHT22;36955;47.416;7.716;2022-08-25T04:46:34;16.20;99.90
50947;DHT22;36955;47.416;7.716;2022-08-25T04:49:01;16.20;99.90
50947;DHT22;36955;47.416;7.716;2022-08-25T04:51:37;16.20;99.90
50947;DHT22;36955;47.416;7.716;2022-08-25T04:54:06;16.20;99.90
50947;DHT22;36955;47.416;7.716;2022-08-25T04:56:33;16.20;99.90
50947;DHT22;36955;47.416;7.716;2022-08-25T04:59:05;16.20;99.90
50947;DHT22;36955;47.416;7.716;2022-08-25T05:01:32;16.20;99.90
50947;DHT22;36955;47.416;7.716;2022-08-25T05:04:00;16.20;99.90
50947;DHT22;36955;47.416;7.716;2022-08-25T05:06:28;16.30;99.90
50947;DHT22;36955;47.416;7.716;2022-08-25T05:08:55;16.30;99.90
50947;DHT22;36955;47.416;7.716;2022-08-25T05:11:22;16.40;99.90
50947;DHT22;36955;47.416;7.716;2022-08-25T05:13:50;16.40;99.90
50947;DHT22;36955;47.416;7.716;2022-08-25T05:16:18;16.50;99.90
50947;DHT22;36955;47.416;7.716;2022-08-25T05:18:44;16.50;99.90
50947;DHT22;36955;47.416;7.716;2022-08-25T05:21:16;16.60;99.90
50947;DHT22;36955;47.416;7.716;2022-08-25T05:23:43;16.60;99.90
50947;DHT22;36955;47.416;7.716;2022-08-25T05:26:12;16.70;99.90
50947;DHT22;36955;47.416;7.716;2022-08-25T05:28:39;16.80;99.90
50947;DHT22;36955;47.416;7.716;2022-08-25T05:31:06;16.90;99.90
50947;DHT22;36955;47.416;7.716;2022-08-25T05:33:32;16.90;99.90
50947;DHT22;36955;47.416;7.716;2022-08-25T05:35:58;17.00;99.90
50947;DHT22;36955;47.416;7.716;2022-08-25T05:38:24;17.10;99.90
50947;DHT22;36955;47.416;7.716;2022-08-25T05:41:05;17.10;99.90
50947;DHT22;36955;47.416;7.716;2022-08-25T05:43:32;17.20;99.90
50947;DHT22;36955;47.416;7.716;2022-08-25T05:45:59;17.30;99.90
50947;DHT22;36955;47.416;7.716;2022-08-25T05:48:26;17.40;99.90
50947;DHT22;36955;47.416;7.716;2022-08-25T05:50:53;17.50;99.90
50947;DHT22;36955;47.416;7.716;2022-08-25T05:53:19;17.60;99.90
50947;DHT22;36955;47.416;7.716;2022-08-25T05:55:46;17.80;99.90
50947;DHT22;36955;47.416;7.716;2022-08-25T05:58:12;18.00;99.90
50947;DHT22;36955;47.416;7.716;2022-08-25T06:00:38;18.20;99.90
50947;DHT22;36955;47.416;7.716;2022-08-25T06:03:04;18.30;99.90
50947;DHT22;36955;47.416;7.716;2022-08-25T06:05:31;18.40;99.90
50947;DHT22;36955;47.416;7.716;2022-08-25T06:07:57;18.40;99.90
50947;DHT22;36955;47.416;7.716;2022-08-25T06:10:24;18.50;99.90
50947;DHT22;36955;47.416;7.716;2022-08-25T06:12:50;18.60;99.90
50947;DHT22;36955;47.416;7.716;2022-08-25T06:15:19;18.70;99.90
50947;DHT22;36955;47.416;7.716;2022-08-25T06:17:47;18.80;99.90
50947;DHT22;36955;47.416;7.716;2022-08-25T06:20:18;18.90;99.90
50947;DHT22;36955;47.416;7.716;2022-08-25T06:22:44;19.00;99.90
50947;DHT22;36955;47.416;7.716;2022-08-25T06:25:12;19.20;99.90
50947;DHT22;36955;47.416;7.716;2022-08-25T06:27:40;19.20;99.90
50947;DHT22;36955;47.416;7.716;2022-08-25T06:30:08;19.30;99.90
50947;DHT22;36955;47.416;7.716;2022-08-25T06:32:37;19.40;99.90
50947;DHT22;36955;47.416;7.716;2022-08-25T06:35:05;19.50;99.90
50947;DHT22;36955;47.416;7.716;2022-08-25T06:37:32;19.50;99.90
50947;DHT22;36955;47.416;7.716;2022-08-25T06:39:58;19.50;99.90
50947;DHT22;36955;47.416;7.716;2022-08-25T06:42:24;19.60;99.90
50947;DHT22;36955;47.416;7.716;2022-08-25T06:44:50;19.60;99.90
50947;DHT22;36955;47.416;7.716;2022-08-25T06:47:17;19.70;99.90
50947;DHT22;36955;47.416;7.716;2022-08-25T06:49:43;19.70;99.90
50947;DHT22;36955;47.416;7.716;2022-08-25T06:52:10;19.80;99.90
50947;DHT22;36955;47.416;7.716;2022-08-25T06:54:36;19.80;99.90
50947;DHT22;36955;47.416;7.716;2022-08-25T06:57:04;19.80;99.90
50947;DHT22;36955;47.416;7.716;2022-08-25T06:59:30;19.90;99.90
50947;DHT22;36955;47.416;7.716;2022-08-25T07:01:56;19.90;99.90
50947;DHT22;36955;47.416;7.716;2022-08-25T07:04:22;20.00;99.90
50947;DHT22;36955;47.416;7.716;2022-08-25T07:06:48;20.10;99.90
50947;DHT22;36955;47.416;7.716;2022-08-25T07:09:15;20.10;99.90
50947;DHT22;36955;47.416;7.716;2022-08-25T07:11:42;20.20;99.90
50947;DHT22;36955;47.416;7.716;2022-08-25T07:14:10;20.30;99.90
50947;DHT22;36955;47.416;7.716;2022-08-25T07:16:38;20.30;99.90
50947;DHT22;36955;47.416;7.716;2022-08-25T07:19:05;20.40;99.90
50947;DHT22;36955;47.416;7.716;2022-08-25T07:21:33;20.40;99.90
50947;DHT22;36955;47.416;7.716;2022-08-25T07:24:01;20.50;99.90
50947;DHT22;36955;47.416;7.716;2022-08-25T07:26:30;20.60;99.90
50947;DHT22;36955;47.416;7.716;2022-08-25T07:28:57;20.70;99.90
50947;DHT22;36955;47.416;7.716;2022-08-25T07:31:23;20.70;99.90
50947;DHT22;36955;47.416;7.716;2022-08-25T07:33:49;20.80;99.90
50947;DHT22;36955;47.416;7.716;2022-08-25T07:36:15;20.80;99.90
50947;DHT22;36955;47.416;7.716;2022-08-25T07:38:41;20.90;99.90
50947;DHT22;36955;47.416;7.716;2022-08-25T07:41:07;21.00;99.90
50947;DHT22;36955;47.416;7.716;2022-08-25T07:43:33;21.00;99.90
50947;DHT22;36955;47.416;7.716;2022-08-25T07:45:59;21.10;99.90
50947;DHT22;36955;47.416;7.716;2022-08-25T07:48:25;21.10;99.90
50947;DHT22;36955;47.416;7.716;2022-08-25T07:50:51;21.20;99.90
50947;DHT22;36955;47.416;7.716;2022-08-25T07:53:17;21.30;99.90
50947;DHT22;36955;47.416;7.716;2022-08-25T07:55:43;21.40;99.90
50947;DHT22;36955;47.416;7.716;2022-08-25T07:58:09;21.50;99.90
50947;DHT22;36955;47.416;7.716;2022-08-25T08:00:37;21.60;99.90
50947;DHT22;36955;47.416;7.716;2022-08-25T08:03:05;21.70;99.90
50947;DHT22;36955;47.416;7.716;2022-08-25T08:05:32;21.70;99.90
50947;DHT22;36955;47.416;7.716;2022-08-25T08:07:59;21.60;99.90
50947;DHT22;36955;47.416;7.716;2022-08-25T08:10:26;21.50;99.90
50947;DHT22;36955;47.416;7.716;2022-08-25T08:12:52;21.50;99.90
50947;DHT22;36955;47.416;7.716;2022-08-25T08:15:18;21.60;99.90
50947;DHT22;36955;47.416;7.716;2022-08-25T08:17:45;21.60;99.90
50947;DHT22;36955;47.416;7.716;2022-08-25T08:20:12;21.60;99.90
50947;DHT22;36955;47.416;7.716;2022-08-25T08:22:41;21.70;99.90
50947;DHT22;36955;47.416;7.716;2022-08-25T08:25:10;21.70;99.90
50947;DHT22;36955;47.416;7.716;2022-08-25T08:27:36;21.80;99.90
50947;DHT22;36955;47.416;7.716;2022-08-25T08:30:04;21.90;99.90
50947;DHT22;36955;47.416;7.716;2022-08-25T08:32:31;22.00;99.90
50947;DHT22;36955;47.416;7.716;2022-08-25T08:34:57;22.00;99.90
50947;DHT22;36955;47.416;7.716;2022-08-25T08:37:23;22.10;99.90
50947;DHT22;36955;47.416;7.716;2022-08-25T08:39:49;22.10;99.90
50947;DHT22;36955;47.416;7.716;2022-08-25T08:45:28;22.20;99.90
50947;DHT22;36955;47.416;7.716;2022-08-25T08:51:05;22.30;99.90
50947;DHT22;36955;47.416;7.716;2022-08-25T08:56:08;22.40;99.90
50947;DHT22;36955;47.416;7.716;2022-08-25T09:01:04;22.60;99.90
50947;DHT22;36955;47.416;7.716;2022-08-25T09:03:37;22.60;99.90
50947;DHT22;36955;47.416;7.716;2022-08-25T09:06:11;22.60;99.90
50947;DHT22;36955;47.416;7.716;2022-08-25T09:08:40;22.70;99.90
50947;DHT22;36955;47.416;7.716;2022-08-25T09:11:17;22.80;99.90
50947;DHT22;36955;47.416;7.716;2022-08-25T09:17:03;23.00;99.90
50947;DHT22;36955;47.416;7.716;2022-08-25T09:25:19;22.90;99.90
50947;DHT22;36955;47.416;7.716;2022-08-25T09:28:05;23.00;99.90
50947;DHT22;36955;47.416;7.716;2022-08-25T09:30:44;22.90;99.90
50947;DHT22;36955;47.416;7.716;2022-08-25T09:33:18;23.00;99.90
50947;DHT22;36955;47.416;7.716;2022-08-25T09:35:44;23.10;99.90
50947;DHT22;36955;47.416;7.716;2022-08-25T09:38:12;23.10;99.90
50947;DHT22;36955;47.416;7.716;2022-08-25T09:40:41;23.20;99.90
50947;DHT22;36955;47.416;7.716;2022-08-25T09:43:29;23.30;99.90
50947;DHT22;36955;47.416;7.716;2022-08-25T09:46:12;23.30;99.90
50947;DHT22;36955;47.416;7.716;2022-08-25T09:48:44;23.30;99.90
50947;DHT22;36955;47.416;7.716;2022-08-25T09:51:31;23.40;99.90
50947;DHT22;36955;47.416;7.716;2022-08-25T09:54:04;23.40;99.90
50947;DHT22;36955;47.416;7.716;2022-08-25T09:56:32;23.40;99.90
50947;DHT22;36955;47.416;7.716;2022-08-25T10:01:53;23.60;99.90
50947;DHT22;36955;47.416;7.716;2022-08-25T10:04:26;23.60;99.90
50947;DHT22;36955;47.416;7.716;2022-08-25T10:06:53;23.60;99.90
50947;DHT22;36955;47.416;7.716;2022-08-25T10:09:27;23.70;99.90
50947;DHT22;36955;47.416;7.716;2022-08-25T10:11:55;23.90;99.90
50947;DHT22;36955;47.416;7.716;2022-08-25T10:14:36;24.00;99.90
50947;DHT22;36955;47.416;7.716;2022-08-25T10:19:41;24.30;99.90
50947;DHT22;36955;47.416;7.716;2022-08-25T10:22:25;24.30;99.90
50947;DHT22;36955;47.416;7.716;2022-08-25T10:24:52;24.40;99.90
50947;DHT22;36955;47.416;7.716;2022-08-25T10:35:37;24.70;99.90
50947;DHT22;36955;47.416;7.716;2022-08-25T10:41:17;24.70;99.90
50947;DHT22;36955;47.416;7.716;2022-08-25T10:44:12;24.60;99.90
50947;DHT22;36955;47.416;7.716;2022-08-25T10:47:03;24.60;99.90
50947;DHT22;36955;47.416;7.716;2022-08-25T10:49:41;24.70;99.90
50947;DHT22;36955;47.416;7.716;2022-08-25T10:52:27;24.70;99.90
50947;DHT22;36955;47.416;7.716;2022-08-25T10:55:00;24.70;99.90
50947;DHT22;36955;47.416;7.716;2022-08-25T11:00:16;24.90;99.90
50947;DHT22;36955;47.416;7.716;2022-08-25T11:03:13;24.90;99.90
50947;DHT22;36955;47.416;7.716;2022-08-25T11:05:57;24.90;99.90
50947;DHT22;36955;47.416;7.716;2022-08-25T11:11:06;25.00;99.90
50947;DHT22;36955;47.416;7.716;2022-08-25T11:13:49;25.10;99.90
50947;DHT22;36955;47.416;7.716;2022-08-25T11:16:21;25.30;99.90
50947;DHT22;36955;47.416;7.716;2022-08-25T11:19:11;25.40;99.90
50947;DHT22;36955;47.416;7.716;2022-08-25T11:24:46;25.70;99.90
50947;DHT22;36955;47.416;7.716;2022-08-25T11:27:20;25.80;99.90
50947;DHT22;36955;47.416;7.716;2022-08-25T11:29:59;25.70;99.90
50947;DHT22;36955;47.416;7.716;2022-08-25T11:32:26;25.60;99.90
50947;DHT22;36955;47.416;7.716;2022-08-25T11:34:53;25.60;99.90
50947;DHT22;36955;47.416;7.716;2022-08-25T11:37:26;25.70;99.90
50947;DHT22;36955;47.416;7.716;2022-08-25T11:40:06;25.70;99.90
50947;DHT22;36955;47.416;7.716;2022-08-25T11:42:51;25.80;99.90
50947;DHT22;36955;47.416;7.716;2022-08-25T11:53:33;26.20;99.90
50947;DHT22;36955;47.416;7.716;2022-08-25T11:56:08;26.10;99.90
50947;DHT22;36955;47.416;7.716;2022-08-25T11:58:49;26.00;99.90
50947;DHT22;36955;47.416;7.716;2022-08-25T12:10:06;26.00;99.90
50947;DHT22;36955;47.416;7.716;2022-08-25T12:17:43;26.10;99.90
50947;DHT22;36955;47.416;7.716;2022-08-25T12:20:09;26.10;99.90
50947;DHT22;36955;47.416;7.716;2022-08-25T12:25:31;26.40;99.90
50947;DHT22;36955;47.416;7.716;2022-08-25T12:28:07;26.40;99.90
50947;DHT22;36955;47.416;7.716;2022-08-25T12:30:53;26.60;99.90
50947;DHT22;36955;47.416;7.716;2022-08-25T12:36:04;26.80;99.90
50947;DHT22;36955;47.416;7.716;2022-08-25T12:38:42;26.90;99.90
50947;DHT22;36955;47.416;7.716;2022-08-25T12:41:25;27.00;99.90
50947;DHT22;36955;47.416;7.716;2022-08-25T12:43:53;27.00;99.90
50947;DHT22;36955;47.416;7.716;2022-08-25T12:46:36;27.10;99.90
50947;DHT22;36955;47.416;7.716;2022-08-25T12:54:46;27.30;99.90
50947;DHT22;36955;47.416;7.716;2022-08-25T13:00:27;27.20;99.90
50947;DHT22;36955;47.416;7.716;2022-08-25T13:11:16;27.50;99.90
50947;DHT22;36955;47.416;7.716;2022-08-25T13:16:27;27.30;99.90
50947;DHT22;36955;47.416;7.716;2022-08-25T13:18:55;27.30;99.90
50947;DHT22;36955;47.416;7.716;2022-08-25T13:21:29;27.40;99.90
50947;DHT22;36955;47.416;7.716;2022-08-25T13:23:58;27.40;99.90
50947;DHT22;36955;47.416;7.716;2022-08-25T13:26:33;27.40;99.90
50947;DHT22;36955;47.416;7.716;2022-08-25T13:31:35;27.20;99.90
50947;DHT22;36955;47.416;7.716;2022-08-25T13:34:07;27.30;99.90
50947;DHT22;36955;47.416;7.716;2022-08-25T13:36:42;27.50;99.90
50947;DHT22;36955;47.416;7.716;2022-08-25T13:39:18;27.80;99.90
50947;DHT22;36955;47.416;7.716;2022-08-25T13:41:50;28.00;99.90
50947;DHT22;36955;47.416;7.716;2022-08-25T13:44:18;28.20;99.90
50947;DHT22;36955;47.416;7.716;2022-08-25T13:46:44;28.30;99.90
50947;DHT22;36955;47.416;7.716;2022-08-25T13:49:11;28.40;99.90
50947;DHT22;36955;47.416;7.716;2022-08-25T13:51:50;28.60;99.90
50947;DHT22;36955;47.416;7.716;2022-08-25T13:54:29;28.80;99.90
50947;DHT22;36955;47.416;7.716;2022-08-25T13:59:38;29.20;99.90
50947;DHT22;36955;47.416;7.716;2022-08-25T14:02:07;29.40;99.90
50947;DHT22;36955;47.416;7.716;2022-08-25T14:09:52;29.80;99.90
50947;DHT22;36955;47.416;7.716;2022-08-25T14:12:27;29.70;99.90
50947;DHT22;36955;47.416;7.716;2022-08-25T14:15:31;29.70;99.90
50947;DHT22;36955;47.416;7.716;2022-08-25T14:18:12;29.90;99.90
50947;DHT22;36955;47.416;7.716;2022-08-25T14:20:52;30.20;99.90
50947;DHT22;36955;47.416;7.716;2022-08-25T14:23:29;30.50;99.90
50947;DHT22;36955;47.416;7.716;2022-08-25T14:25:56;30.80;99.90
50947;DHT22;36955;47.416;7.716;2022-08-25T14:28:25;30.70;99.90
50947;DHT22;36955;47.416;7.716;2022-08-25T14:33:27;30.40;99.90
50947;DHT22;36955;47.416;7.716;2022-08-25T14:35:57;30.30;99.90
50947;DHT22;36955;47.416;7.716;2022-08-25T14:38:23;30.30;99.90
50947;DHT22;36955;47.416;7.716;2022-08-25T14:40:50;30.10;99.90
50947;DHT22;36955;47.416;7.716;2022-08-25T14:43:16;30.10;99.90
50947;DHT22;36955;47.416;7.716;2022-08-25T14:45:44;30.10;99.90
50947;DHT22;36955;47.416;7.716;2022-08-25T14:48:36;30.20;99.90
50947;DHT22;36955;47.416;7.716;2022-08-25T14:51:04;30.20;99.90
50947;DHT22;36955;47.416;7.716;2022-08-25T14:53:31;30.00;99.90
50947;DHT22;36955;47.416;7.716;2022-08-25T14:55:57;30.00;99.90
50947;DHT22;36955;47.416;7.716;2022-08-25T14:58:23;30.00;99.90
50947;DHT22;36955;47.416;7.716;2022-08-25T15:00:50;29.90;99.90
50947;DHT22;36955;47.416;7.716;2022-08-25T15:03:28;29.80;99.90
50947;DHT22;36955;47.416;7.716;2022-08-25T15:05:55;29.80;99.90
50947;DHT22;36955;47.416;7.716;2022-08-25T15:08:21;29.80;99.90
50947;DHT22;36955;47.416;7.716;2022-08-25T15:10:47;29.80;99.50
50947;DHT22;36955;47.416;7.716;2022-08-25T15:13:13;30.00;99.90
50947;DHT22;36955;47.416;7.716;2022-08-25T15:15:42;30.30;99.00
50947;DHT22;36955;47.416;7.716;2022-08-25T15:18:09;30.40;99.50
50947;DHT22;36955;47.416;7.716;2022-08-25T15:20:35;30.30;99.70
50947;DHT22;36955;47.416;7.716;2022-08-25T15:23:01;30.30;98.80
50947;DHT22;36955;47.416;7.716;2022-08-25T15:25:28;30.10;98.70
50947;DHT22;36955;47.416;7.716;2022-08-25T15:27:54;30.40;99.90
50947;DHT22;36955;47.416;7.716;2022-08-25T15:30:20;30.70;99.60
50947;DHT22;36955;47.416;7.716;2022-08-25T15:32:46;31.20;99.20
50947;DHT22;36955;47.416;7.716;2022-08-25T15:35:12;31.60;98.80
50947;DHT22;36955;47.416;7.716;2022-08-25T15:37:38;31.60;98.00
50947;DHT22;36955;47.416;7.716;2022-08-25T15:40:05;31.20;98.20
50947;DHT22;36955;47.416;7.716;2022-08-25T15:42:31;30.70;98.40
50947;DHT22;36955;47.416;7.716;2022-08-25T15:44:57;30.40;97.40
50947;DHT22;36955;47.416;7.716;2022-08-25T15:47:23;30.30;98.20
50947;DHT22;36955;47.416;7.716;2022-08-25T15:49:49;30.20;98.70
50947;DHT22;36955;47.416;7.716;2022-08-25T15:52:16;30.30;97.80
50947;DHT22;36955;47.416;7.716;2022-08-25T15:54:42;30.40;99.60
50947;DHT22;36955;47.416;7.716;2022-08-25T15:57:08;30.60;98.10
50947;DHT22;36955;47.416;7.716;2022-08-25T15:59:34;30.40;97.30
50947;DHT22;36955;47.416;7.716;2022-08-25T16:02:00;30.50;97.30
50947;DHT22;36955;47.416;7.716;2022-08-25T16:04:27;30.70;97.00
50947;DHT22;36955;47.416;7.716;2022-08-25T16:06:54;30.70;97.30
50947;DHT22;36955;47.416;7.716;2022-08-25T16:09:20;30.60;97.80
50947;DHT22;36955;47.416;7.716;2022-08-25T16:11:46;30.50;97.90
50947;DHT22;36955;47.416;7.716;2022-08-25T16:14:13;30.50;97.60
50947;DHT22;36955;47.416;7.716;2022-08-25T16:16:39;30.60;96.80
50947;DHT22;36955;47.416;7.716;2022-08-25T16:19:05;30.30;97.50
50947;DHT22;36955;47.416;7.716;2022-08-25T16:21:33;30.30;97.70
50947;DHT22;36955;47.416;7.716;2022-08-25T16:24:01;30.20;97.40
50947;DHT22;36955;47.416;7.716;2022-08-25T16:26:29;29.70;98.10
50947;DHT22;36955;47.416;7.716;2022-08-25T16:28:55;29.40;97.60
50947;DHT22;36955;47.416;7.716;2022-08-25T16:31:21;29.20;97.30
50947;DHT22;36955;47.416;7.716;2022-08-25T16:33:47;29.20;97.60
50947;DHT22;36955;47.416;7.716;2022-08-25T16:36:19;29.00;99.00
50947;DHT22;36955;47.416;7.716;2022-08-25T16:38:46;29.10;97.30
50947;DHT22;36955;47.416;7.716;2022-08-25T16:41:18;29.20;97.30
50947;DHT22;36955;47.416;7.716;2022-08-25T16:43:45;29.50;97.50
50947;DHT22;36955;47.416;7.716;2022-08-25T16:46:13;29.50;98.00
50947;DHT22;36955;47.416;7.716;2022-08-25T16:48:40;29.60;97.10
50947;DHT22;36955;47.416;7.716;2022-08-25T16:51:09;29.40;97.10
50947;DHT22;36955;47.416;7.716;2022-08-25T16:53:36;29.10;97.40
50947;DHT22;36955;47.416;7.716;2022-08-25T16:56:03;28.70;97.90
50947;DHT22;36955;47.416;7.716;2022-08-25T16:58:30;28.40;98.40
50947;DHT22;36955;47.416;7.716;2022-08-25T17:01:11;28.10;98.80
50947;DHT22;36955;47.416;7.716;2022-08-25T17:03:38;27.70;98.90
50947;DHT22;36955;47.416;7.716;2022-08-25T17:06:05;27.50;99.90
50947;DHT22;36955;47.416;7.716;2022-08-25T17:08:33;27.40;99.70
50947;DHT22;36955;47.416;7.716;2022-08-25T17:11:12;27.30;99.80
50947;DHT22;36955;47.416;7.716;2022-08-25T17:13:42;27.10;99.20
50947;DHT22;36955;47.416;7.716;2022-08-25T17:16:10;27.10;99.30
50947;DHT22;36955;47.416;7.716;2022-08-25T17:18:36;27.10;99.50
50947;DHT22;36955;47.416;7.716;2022-08-25T17:21:06;27.00;99.90
50947;DHT22;36955;47.416;7.716;2022-08-25T17:23:33;27.00;99.60
50947;DHT22;36955;47.416;7.716;2022-08-25T17:26:01;26.90;99.90
50947;DHT22;36955;47.416;7.716;2022-08-25T17:28:27;26.90;99.90
50947;DHT22;36955;47.416;7.716;2022-08-25T17:30:53;26.80;99.90
50947;DHT22;36955;47.416;7.716;2022-08-25T17:33:20;26.90;99.90